Weather at Douala International Airport

Public forecast

Using degrees Celsius for public forecast. Weather courtesy of forecast.io.

Current aviation weather report (METAR) for Douala International Airport

Retrieved 2020/10/20 22:00 UTC (27 minutes ago):

FKKD 202200Z 00000KT 9999 BKN013 FEW016CB 26/25 Q1013 NOSIG

Aviation forecast (TAF) for Douala International Airport

Retrieved 2020/10/20 18:00 UTC (4 hours ago):

TAF FKKD 201700Z 2018/2124 VRB03KT 9999 BKN013 FEW020CB PROB30 2021/2024 4000 -TSRA TEMPO 2104/2107 3000 BR